createdAt,value
2023-07-24T00:02:05.243Z,100.00
2023-07-24T00:04:35.721Z,100.00
2023-07-24T00:07:08.886Z,100.00
2023-07-24T00:09:39.162Z,100.00
2023-07-24T00:12:11.406Z,100.00
2023-07-24T00:14:41.723Z,100.00
2023-07-24T00:17:12.043Z,100.00
2023-07-24T00:19:42.290Z,100.00
2023-07-24T00:22:15.206Z,100.00
2023-07-24T00:24:45.500Z,100.00
2023-07-24T00:27:15.815Z,100.00
2023-07-24T00:29:46.250Z,100.00
2023-07-24T00:32:16.564Z,100.00
2023-07-24T00:34:46.830Z,100.00
2023-07-24T00:37:20.148Z,100.00
2023-07-24T00:39:50.426Z,100.00
2023-07-24T00:42:20.702Z,100.00
2023-07-24T00:44:51.254Z,100.00
2023-07-24T00:47:21.800Z,100.00
2023-07-24T00:49:53.613Z,100.00
2023-07-24T00:52:26.752Z,100.00
2023-07-24T00:54:58.351Z,100.00
2023-07-24T00:57:28.720Z,100.00
2023-07-24T00:59:59.594Z,100.00
2023-07-24T01:02:30.368Z,100.00
2023-07-24T01:05:00.960Z,99.42
2023-07-24T01:07:34.297Z,99.74
2023-07-24T01:10:05.019Z,99.62
2023-07-24T01:12:41.076Z,99.60
2023-07-24T01:15:18.335Z,99.60
2023-07-24T01:17:53.544Z,99.52
2023-07-24T01:20:25.131Z,99.69
2023-07-24T01:23:34.121Z,99.56
2023-07-24T01:26:07.153Z,99.52
2023-07-24T01:28:37.466Z,99.55
2023-07-24T01:31:07.819Z,99.41
2023-07-24T01:33:38.539Z,100.00
2023-07-24T01:36:10.171Z,99.82
2023-07-24T01:38:41.511Z,99.82
2023-07-24T01:41:14.567Z,99.99
2023-07-24T01:43:44.807Z,99.84
2023-07-24T01:46:15.246Z,100.00
2023-07-24T01:48:45.534Z,100.00
2023-07-24T01:51:15.848Z,100.00
2023-07-24T01:53:46.107Z,100.00
2023-07-24T01:56:19.042Z,100.00
2023-07-24T01:58:49.285Z,100.00
2023-07-24T02:01:19.595Z,100.00
2023-07-24T02:03:50.010Z,100.00
2023-07-24T02:06:20.393Z,100.00
2023-07-24T02:08:52.560Z,100.00
2023-07-24T02:11:25.498Z,100.00
2023-07-24T02:13:55.794Z,100.00
2023-07-24T02:16:26.195Z,100.00
2023-07-24T02:18:56.536Z,100.00
2023-07-24T02:21:26.886Z,100.00
2023-07-24T02:23:57.195Z,100.00
2023-07-24T02:26:30.315Z,100.00
2023-07-24T02:29:00.710Z,100.00
2023-07-24T02:31:31.140Z,100.00
2023-07-24T02:34:01.458Z,100.00
2023-07-24T02:36:32.039Z,100.00
2023-07-24T02:39:02.506Z,100.00
2023-07-24T02:41:35.391Z,100.00
2023-07-24T02:44:07.559Z,100.00
2023-07-24T02:46:37.963Z,100.00
2023-07-24T02:49:08.880Z,100.00
2023-07-24T02:51:39.147Z,100.00
2023-07-24T02:54:10.224Z,100.00
2023-07-24T02:56:43.256Z,100.00
2023-07-24T02:59:13.619Z,100.00
2023-07-24T03:01:45.877Z,100.00
2023-07-24T03:04:16.125Z,100.00
2023-07-24T03:06:46.418Z,100.00
2023-07-24T03:09:16.716Z,100.00
2023-07-24T03:11:49.601Z,100.00
2023-07-24T03:14:19.897Z,100.00
2023-07-24T03:16:50.226Z,100.00
2023-07-24T03:19:21.714Z,100.00
2023-07-24T03:21:52.027Z,100.00
2023-07-24T03:24:24.140Z,100.00
2023-07-24T03:26:57.112Z,100.00
2023-07-24T03:29:27.556Z,100.00
2023-07-24T03:31:57.973Z,100.00
2023-07-24T03:34:28.287Z,100.00
2023-07-24T03:36:58.558Z,100.00
2023-07-24T03:39:28.937Z,100.00
2023-07-24T03:42:01.844Z,100.00
2023-07-24T03:44:32.165Z,100.00
2023-07-24T03:47:02.482Z,100.00
2023-07-24T03:49:32.806Z,100.00
2023-07-24T03:52:03.107Z,100.00
2023-07-24T03:54:33.374Z,100.00
2023-07-24T03:57:06.638Z,100.00
2023-07-24T03:59:37.106Z,100.00
2023-07-24T04:02:10.629Z,100.00
2023-07-24T04:04:41.317Z,100.00
2023-07-24T04:07:11.631Z,100.00
2023-07-24T04:09:41.868Z,100.00
2023-07-24T04:12:14.928Z,100.00
2023-07-24T04:14:45.191Z,100.00
2023-07-24T04:17:15.512Z,100.00
2023-07-24T04:19:46.806Z,100.00
2023-07-24T04:22:17.104Z,100.00
2023-07-24T04:24:47.420Z,100.00
2023-07-24T04:27:20.339Z,100.00
2023-07-24T04:29:50.686Z,100.00
2023-07-24T04:32:21.137Z,100.00
2023-07-24T04:34:51.450Z,100.00
2023-07-24T04:37:21.751Z,100.00
2023-07-24T04:39:52.024Z,100.00
2023-07-24T04:42:24.980Z,100.00
2023-07-24T04:44:55.273Z,100.00
2023-07-24T04:47:25.592Z,100.00
2023-07-24T04:49:56.569Z,100.00
2023-07-24T04:52:27.007Z,100.00
2023-07-24T04:54:57.264Z,100.00
2023-07-24T04:57:30.122Z,100.00
2023-07-24T05:00:00.431Z,100.00
2023-07-24T05:02:30.751Z,100.00
2023-07-24T05:05:01.049Z,100.00
2023-07-24T05:07:31.339Z,100.00
2023-07-24T05:10:01.920Z,100.00
2023-07-24T05:12:35.073Z,100.00
2023-07-24T05:15:05.369Z,100.00
2023-07-24T05:17:35.660Z,100.00
2023-07-24T05:20:06.330Z,100.00
2023-07-24T05:22:36.662Z,100.00
2023-07-24T05:25:07.929Z,100.00
2023-07-24T05:27:40.835Z,100.00
2023-07-24T05:30:12.605Z,100.00
2023-07-24T05:32:43.032Z,100.00
2023-07-24T05:35:13.348Z,100.00
2023-07-24T05:37:43.649Z,100.00
2023-07-24T05:40:14.197Z,100.00
2023-07-24T05:42:47.373Z,100.00
2023-07-24T05:45:18.136Z,100.00
2023-07-24T05:47:48.632Z,100.00
2023-07-24T05:50:19.181Z,100.00
2023-07-24T05:52:49.733Z,100.00
2023-07-24T05:55:20.261Z,100.00
2023-07-24T05:57:53.150Z,100.00
2023-07-24T06:00:23.703Z,100.00
2023-07-24T06:02:56.381Z,100.00
2023-07-24T06:05:27.704Z,100.00
2023-07-24T06:07:57.987Z,100.00
2023-07-24T06:10:28.357Z,100.00
2023-07-24T06:13:01.263Z,100.00
2023-07-24T06:15:31.519Z,100.00
2023-07-24T06:18:01.938Z,100.00
2023-07-24T06:20:32.276Z,100.00
2023-07-24T06:23:03.826Z,100.00
2023-07-24T06:25:34.472Z,100.00
2023-07-24T06:28:08.006Z,100.00
2023-07-24T06:30:38.320Z,100.00
2023-07-24T06:33:08.731Z,100.00
2023-07-24T06:35:39.274Z,100.00
2023-07-24T06:38:09.736Z,100.00
2023-07-24T06:40:40.180Z,100.00
2023-07-24T06:43:13.178Z,100.00
2023-07-24T06:45:43.541Z,100.00
2023-07-24T06:48:13.850Z,100.00
2023-07-24T06:50:44.139Z,100.00
2023-07-24T06:53:14.453Z,100.00
2023-07-24T06:55:46.068Z,100.00
2023-07-24T06:58:18.983Z,100.00
2023-07-24T07:00:49.223Z,100.00
2023-07-24T07:03:19.566Z,100.00
2023-07-24T07:05:49.878Z,100.00
2023-07-24T07:08:20.188Z,100.00
2023-07-24T07:10:50.492Z,100.00
2023-07-24T07:13:23.462Z,100.00
2023-07-24T07:15:53.817Z,100.00
2023-07-24T07:18:24.239Z,100.00
2023-07-24T07:20:55.927Z,100.00
2023-07-24T07:23:26.389Z,100.00
2023-07-24T07:25:56.666Z,100.00
2023-07-24T07:28:29.620Z,100.00
2023-07-24T07:30:59.931Z,100.00
2023-07-24T07:33:30.749Z,100.00
2023-07-24T07:36:01.084Z,100.00
2023-07-24T07:38:31.532Z,100.00
2023-07-24T07:41:01.883Z,100.00
2023-07-24T07:43:34.804Z,100.00
2023-07-24T07:46:05.120Z,100.00
2023-07-24T07:48:35.542Z,100.00
2023-07-24T07:51:05.841Z,100.00
2023-07-24T07:53:36.172Z,100.00
2023-07-24T07:56:06.485Z,100.00
2023-07-24T07:58:39.356Z,100.00
2023-07-24T08:01:10.133Z,100.00
2023-07-24T08:03:40.521Z,100.00
2023-07-24T08:06:10.890Z,100.00
2023-07-24T08:08:41.180Z,100.00
2023-07-24T08:11:11.511Z,100.00
2023-07-24T08:13:44.429Z,100.00
2023-07-24T08:16:20.124Z,100.00
2023-07-24T08:18:51.369Z,100.00
2023-07-24T08:21:21.912Z,100.00
2023-07-24T08:23:52.220Z,100.00
2023-07-24T08:26:22.468Z,100.00
2023-07-24T08:28:55.359Z,100.00
2023-07-24T08:31:25.719Z,100.00
2023-07-24T08:33:56.193Z,100.00
2023-07-24T08:36:26.708Z,100.00
2023-07-24T08:38:57.135Z,100.00
2023-07-24T08:41:27.421Z,100.00
2023-07-24T08:44:00.353Z,100.00
2023-07-24T08:46:32.192Z,100.00
2023-07-24T08:49:03.194Z,100.00
2023-07-24T08:51:35.040Z,100.00
2023-07-24T08:54:06.377Z,100.00
2023-07-24T08:56:36.827Z,100.00
2023-07-24T08:59:09.822Z,100.00
2023-07-24T09:01:40.605Z,100.00
2023-07-24T09:04:11.014Z,100.00
2023-07-24T09:06:42.807Z,99.96
2023-07-24T09:09:22.165Z,100.00
2023-07-24T09:11:55.155Z,98.83
2023-07-24T09:14:32.865Z,98.60
2023-07-24T09:17:07.898Z,98.82
2023-07-24T09:19:38.740Z,98.71
2023-07-24T09:22:16.338Z,98.72
2023-07-24T09:24:56.087Z,98.84
2023-07-24T09:27:32.951Z,98.13
2023-07-24T09:30:06.111Z,98.06
2023-07-24T09:32:36.561Z,98.09
2023-07-24T09:35:08.280Z,98.22
2023-07-24T09:37:39.465Z,97.49
2023-07-24T09:40:11.263Z,97.02
2023-07-24T09:43:02.134Z,96.60
2023-07-24T09:45:37.500Z,97.15
2023-07-24T09:48:41.017Z,97.08
2023-07-24T09:51:08.843Z,95.76
2023-07-24T09:53:46.167Z,96.11
2023-07-24T09:56:18.963Z,95.77
2023-07-24T09:58:55.645Z,95.33
2023-07-24T10:01:29.727Z,95.75
2023-07-24T10:04:01.252Z,95.69
2023-07-24T10:06:33.663Z,95.07
2023-07-24T10:09:04.859Z,94.51
2023-07-24T10:11:35.366Z,93.65
2023-07-24T10:14:06.318Z,94.12
2023-07-24T10:16:40.173Z,95.58
2023-07-24T10:19:18.907Z,97.17
2023-07-24T10:21:51.347Z,96.57
2023-07-24T10:24:40.103Z,96.37
2023-07-24T10:27:12.457Z,96.88
2023-07-24T10:29:44.049Z,97.53
2023-07-24T10:32:26.587Z,98.06
2023-07-24T10:35:11.083Z,98.28
2023-07-24T10:37:42.373Z,97.38
2023-07-24T10:40:24.748Z,97.20
2023-07-24T10:43:04.247Z,96.60
2023-07-24T10:45:50.065Z,94.67
2023-07-24T10:48:26.165Z,93.86
2023-07-24T10:50:56.815Z,92.39
2023-07-24T10:53:28.270Z,93.15
2023-07-24T10:55:58.773Z,91.10
2023-07-24T10:58:30.167Z,91.43
2023-07-24T11:01:00.494Z,88.04
2023-07-24T11:03:33.401Z,85.59
2023-07-24T11:06:04.038Z,83.65
2023-07-24T11:08:37.624Z,79.59
2023-07-24T11:11:08.043Z,78.84
2023-07-24T11:13:38.739Z,77.34
2023-07-24T11:16:11.126Z,77.12
2023-07-24T11:18:56.805Z,75.43
2023-07-24T11:21:27.619Z,75.84
2023-07-24T11:23:59.819Z,76.81
2023-07-24T11:26:31.033Z,75.54
2023-07-24T11:29:01.344Z,74.70
2023-07-24T11:31:31.748Z,71.93
2023-07-24T11:34:05.045Z,72.10
2023-07-24T11:36:35.540Z,72.59
2023-07-24T11:39:05.940Z,70.12
2023-07-24T11:41:36.224Z,69.93
2023-07-24T11:44:06.750Z,71.48
2023-07-24T11:46:37.115Z,72.25
2023-07-24T11:49:10.667Z,72.04
2023-07-24T11:51:41.788Z,72.15
2023-07-24T11:54:13.626Z,73.36
2023-07-24T11:56:43.982Z,74.41
2023-07-24T11:59:17.191Z,74.97
2023-07-24T12:01:51.144Z,75.02
2023-07-24T12:04:24.599Z,76.20
2023-07-24T12:06:56.074Z,76.33
2023-07-24T12:11:54.043Z,78.52
2023-07-24T12:14:24.818Z,78.85
2023-07-24T12:17:07.604Z,79.85
2023-07-24T12:19:40.713Z,80.74
2023-07-24T12:22:11.296Z,81.78
2023-07-24T12:24:41.640Z,82.34
2023-07-24T12:27:11.939Z,82.87
2023-07-24T12:29:42.210Z,83.21
2023-07-24T12:32:12.612Z,83.56
2023-07-24T12:34:46.461Z,83.55
2023-07-24T12:37:16.872Z,83.94
2023-07-24T12:39:48.099Z,84.32
2023-07-24T12:42:18.576Z,83.60
2023-07-24T12:44:49.107Z,83.13
2023-07-24T12:47:19.555Z,83.11
2023-07-24T12:49:53.867Z,82.61
2023-07-24T12:52:24.181Z,81.94
2023-07-24T12:55:01.639Z,81.35
2023-07-24T12:57:32.983Z,80.63
2023-07-24T13:00:06.295Z,79.75
2023-07-24T13:02:36.633Z,80.23
2023-07-24T13:05:10.122Z,79.94
2023-07-24T13:07:41.036Z,78.70
2023-07-24T13:10:13.475Z,78.85
2023-07-24T13:12:43.801Z,78.94
2023-07-24T13:15:14.198Z,79.10
2023-07-24T13:17:44.551Z,78.94
2023-07-24T13:20:17.847Z,77.90
2023-07-24T13:22:50.069Z,77.62
2023-07-24T13:25:20.490Z,77.91
2023-07-24T13:27:51.702Z,78.11
2023-07-24T13:30:22.074Z,78.78
2023-07-24T13:32:52.642Z,76.70
2023-07-24T13:35:25.678Z,75.77
2023-07-24T13:37:56.170Z,75.38
2023-07-24T13:40:26.560Z,75.76
2023-07-24T13:42:57.369Z,74.29
2023-07-24T13:45:27.648Z,73.45
2023-07-24T13:47:58.010Z,72.85
2023-07-24T13:50:30.887Z,70.04
2023-07-24T13:53:01.192Z,70.28
2023-07-24T13:55:31.562Z,71.43
2023-07-24T13:58:01.877Z,67.03
2023-07-24T14:00:32.283Z,67.21
2023-07-24T14:03:02.788Z,67.68
2023-07-24T14:05:37.900Z,67.20
2023-07-24T14:08:08.295Z,64.37
2023-07-24T14:10:38.626Z,63.68
2023-07-24T14:13:08.923Z,64.01
2023-07-24T14:15:39.400Z,62.10
2023-07-24T14:18:09.704Z,60.93
2023-07-24T14:20:42.675Z,62.88
2023-07-24T14:23:12.999Z,63.60
2023-07-24T14:25:43.284Z,61.11
2023-07-24T14:28:13.592Z,62.08
2023-07-24T14:30:44.211Z,62.92
2023-07-24T14:33:14.598Z,61.12
2023-07-24T14:35:47.499Z,62.64
2023-07-24T14:38:17.816Z,61.33
2023-07-24T14:40:48.068Z,60.86
2023-07-24T14:43:18.444Z,61.02
2023-07-24T14:45:49.365Z,60.99
2023-07-24T14:48:19.638Z,60.07
2023-07-24T14:50:52.520Z,55.76
2023-07-24T14:53:22.787Z,54.90
2023-07-24T14:55:53.187Z,55.73
2023-07-24T14:58:23.563Z,56.19
2023-07-24T15:00:53.926Z,55.96
2023-07-24T15:03:24.336Z,57.01
2023-07-24T15:05:57.664Z,56.40
2023-07-24T15:08:28.060Z,56.77
2023-07-24T15:10:58.350Z,55.98
2023-07-24T15:13:28.652Z,56.85
2023-07-24T15:15:58.965Z,56.66
2023-07-24T15:18:29.296Z,56.76
2023-07-24T15:21:02.348Z,57.07
2023-07-24T15:23:32.648Z,55.49
2023-07-24T15:26:03.140Z,55.87
2023-07-24T15:28:33.458Z,54.81
2023-07-24T15:31:03.932Z,54.24
2023-07-24T15:33:34.308Z,54.11
2023-07-24T15:36:07.717Z,55.24
2023-07-24T15:38:38.103Z,55.02
2023-07-24T15:41:08.430Z,52.95
2023-07-24T15:43:38.743Z,52.12
2023-07-24T15:46:09.148Z,53.40
2023-07-24T15:48:39.544Z,53.40
2023-07-24T15:51:12.540Z,53.55
2023-07-24T15:53:42.872Z,53.55
2023-07-24T15:56:13.284Z,53.55
2023-07-24T15:58:44.487Z,54.07
2023-07-24T16:01:14.828Z,54.03
2023-07-24T16:03:45.671Z,54.81
2023-07-24T16:06:19.086Z,52.86
2023-07-24T16:08:49.403Z,53.77
2023-07-24T16:11:19.748Z,54.27
2023-07-24T16:13:50.083Z,53.21
2023-07-24T16:16:20.353Z,53.37
2023-07-24T16:18:50.610Z,54.72
2023-07-24T16:21:26.696Z,55.77
2023-07-24T16:23:56.962Z,56.40
2023-07-24T16:26:27.474Z,55.99
2023-07-24T16:28:57.768Z,56.13
2023-07-24T16:31:35.294Z,56.17
2023-07-24T16:34:06.597Z,57.30
2023-07-24T16:36:39.576Z,57.99
2023-07-24T16:39:09.993Z,58.17
2023-07-24T16:41:40.248Z,55.88
2023-07-24T16:44:15.087Z,56.21
2023-07-24T16:46:46.009Z,57.01
2023-07-24T16:49:16.291Z,58.26
2023-07-24T16:51:49.386Z,59.42
2023-07-24T16:54:19.665Z,59.51
2023-07-24T16:56:49.956Z,58.68
2023-07-24T16:59:20.261Z,58.33
2023-07-24T17:01:50.531Z,58.62
2023-07-24T17:04:20.850Z,58.85
2023-07-24T17:06:53.804Z,57.95
2023-07-24T17:09:24.208Z,56.61
2023-07-24T17:11:54.487Z,56.89
2023-07-24T17:14:24.792Z,57.15
2023-07-24T17:16:55.084Z,56.90
2023-07-24T17:19:25.432Z,57.29
2023-07-24T17:21:58.274Z,56.92
2023-07-24T17:24:28.667Z,56.63
2023-07-24T17:26:59.093Z,57.36
2023-07-24T17:29:29.352Z,57.34
2023-07-24T17:32:00.164Z,57.10
2023-07-24T17:34:30.455Z,56.68
2023-07-24T17:37:03.330Z,56.58
2023-07-24T17:39:33.601Z,55.96
2023-07-24T17:42:03.852Z,55.59
2023-07-24T17:44:34.175Z,55.43
2023-07-24T17:47:04.402Z,55.19
2023-07-24T17:49:34.771Z,56.17
2023-07-24T17:52:09.978Z,56.36
2023-07-24T17:54:40.750Z,54.94
2023-07-24T17:57:11.022Z,55.34
2023-07-24T17:59:41.425Z,55.18
2023-07-24T18:02:11.759Z,54.85
2023-07-24T18:04:42.148Z,54.89
2023-07-24T18:07:15.093Z,55.21
2023-07-24T18:09:45.376Z,55.70
2023-07-24T18:12:16.192Z,56.22
2023-07-24T18:14:46.466Z,56.83
2023-07-24T18:17:16.740Z,55.90
2023-07-24T18:19:48.256Z,55.86
2023-07-24T18:22:22.458Z,56.90
2023-07-24T18:24:52.934Z,57.25
2023-07-24T18:27:23.252Z,57.37
2023-07-24T18:29:54.131Z,58.00
2023-07-24T18:32:25.710Z,57.84
2023-07-24T18:34:56.405Z,58.26
2023-07-24T18:37:29.296Z,58.79
2023-07-24T18:39:59.596Z,59.29
2023-07-24T18:42:29.857Z,59.40
2023-07-24T18:45:00.159Z,59.87
2023-07-24T18:47:31.685Z,59.88
2023-07-24T18:50:02.009Z,61.08
2023-07-24T18:52:34.891Z,60.67
2023-07-24T18:55:05.258Z,61.26
2023-07-24T18:57:35.917Z,61.79
2023-07-24T19:00:06.380Z,61.63
2023-07-24T19:02:36.672Z,61.19
2023-07-24T19:05:07.467Z,61.44
2023-07-24T19:07:40.452Z,61.42
2023-07-24T19:10:13.690Z,61.90
2023-07-24T19:12:44.484Z,62.22
2023-07-24T19:15:15.785Z,62.69
2023-07-24T19:17:46.066Z,63.03
2023-07-24T19:20:18.121Z,62.78
2023-07-24T19:22:50.973Z,62.32
2023-07-24T19:25:21.551Z,62.24
2023-07-24T19:27:51.929Z,62.56
2023-07-24T19:30:22.275Z,62.85
2023-07-24T19:32:52.604Z,62.80
2023-07-24T19:35:23.210Z,62.64
2023-07-24T19:37:56.103Z,63.02
2023-07-24T19:40:26.428Z,63.37
2023-07-24T19:42:56.736Z,62.88
2023-07-24T19:45:27.767Z,62.92
2023-07-24T19:47:58.309Z,62.87
2023-07-24T19:50:28.707Z,63.79
2023-07-24T19:53:01.587Z,64.26
2023-07-24T19:55:31.927Z,65.08
2023-07-24T19:58:02.208Z,65.05
2023-07-24T20:00:33.461Z,65.42
2023-07-24T20:03:04.025Z,65.72
2023-07-24T20:05:34.471Z,65.98
2023-07-24T20:08:07.989Z,66.35
2023-07-24T20:10:38.361Z,66.52
2023-07-24T20:13:08.619Z,66.71
2023-07-24T20:15:38.886Z,66.97
2023-07-24T20:18:09.261Z,67.03
2023-07-24T20:20:39.833Z,67.28
2023-07-24T20:23:12.781Z,67.44
2023-07-24T20:25:43.672Z,67.86
2023-07-24T20:28:14.008Z,67.88
2023-07-24T20:30:47.296Z,68.17
2023-07-24T20:33:19.250Z,68.40
2023-07-24T20:35:49.668Z,68.25
2023-07-24T20:38:32.620Z,68.71
2023-07-24T20:41:03.091Z,68.39
2023-07-24T20:43:33.715Z,68.51
2023-07-24T20:46:14.623Z,68.91
2023-07-24T20:48:45.350Z,69.04
2023-07-24T20:51:21.485Z,69.13
2023-07-24T20:53:59.684Z,69.41
2023-07-24T20:56:30.265Z,69.80
2023-07-24T20:59:00.589Z,70.13
2023-07-24T21:01:31.126Z,71.16
2023-07-24T21:04:01.724Z,71.60
2023-07-24T21:06:32.081Z,71.58
2023-07-24T21:09:05.098Z,71.79
2023-07-24T21:11:36.077Z,72.08
2023-07-24T21:14:06.429Z,72.93
2023-07-24T21:16:36.795Z,73.18
2023-07-24T21:19:07.060Z,73.36
2023-07-24T21:21:41.978Z,74.01
2023-07-24T21:24:19.291Z,74.41
2023-07-24T21:26:53.626Z,75.53
2023-07-24T21:29:27.176Z,75.37
2023-07-24T21:31:59.978Z,76.03
2023-07-24T21:34:34.962Z,76.24
2023-07-24T21:37:10.689Z,76.45
2023-07-24T21:39:46.871Z,77.16
2023-07-24T21:42:19.167Z,77.50
2023-07-24T21:44:52.885Z,77.25
2023-07-24T21:47:28.465Z,77.39
2023-07-24T21:50:00.576Z,77.95
2023-07-24T21:52:34.174Z,78.49
2023-07-24T21:55:10.957Z,78.90
2023-07-24T21:57:44.727Z,79.13
2023-07-24T22:00:19.673Z,78.73
2023-07-24T22:02:53.817Z,78.81
2023-07-24T22:05:27.411Z,78.95
2023-07-24T22:08:01.277Z,80.45
2023-07-24T22:10:38.517Z,80.59
2023-07-24T22:13:13.363Z,80.33
2023-07-24T22:15:47.552Z,81.11
2023-07-24T22:18:22.129Z,81.57
2023-07-24T22:20:56.162Z,82.19
2023-07-24T22:23:30.380Z,82.33
2023-07-24T22:26:04.568Z,82.84
2023-07-24T22:28:34.872Z,83.65
2023-07-24T22:31:12.136Z,83.85
2023-07-24T22:33:42.456Z,84.08
2023-07-24T22:36:12.973Z,84.27
2023-07-24T22:38:43.292Z,84.41
2023-07-24T22:41:17.153Z,84.43
2023-07-24T22:43:47.428Z,84.93
2023-07-24T22:46:17.734Z,84.44
2023-07-24T22:48:48.085Z,85.99
2023-07-24T22:51:18.447Z,85.96
2023-07-24T22:53:48.859Z,85.90
2023-07-24T22:56:21.794Z,86.51
2023-07-24T22:59:24.888Z,87.47
2023-07-24T23:01:57.329Z,86.57
2023-07-24T23:04:29.251Z,87.14
2023-07-24T23:07:01.009Z,87.62
2023-07-24T23:09:31.461Z,87.56
2023-07-24T23:12:04.339Z,87.60
2023-07-24T23:14:34.662Z,87.40
2023-07-24T23:17:05.029Z,87.84
2023-07-24T23:19:35.416Z,88.13
2023-07-24T23:22:05.726Z,87.72
2023-07-24T23:24:36.639Z,88.01
2023-07-24T23:27:09.866Z,88.35
2023-07-24T23:29:40.193Z,88.02
2023-07-24T23:32:12.488Z,89.18
2023-07-24T23:34:42.753Z,89.22
2023-07-24T23:37:13.056Z,89.13
2023-07-24T23:39:43.384Z,89.29
2023-07-24T23:42:16.293Z,89.32
2023-07-24T23:44:46.563Z,88.88
2023-07-24T23:47:18.159Z,89.54
2023-07-24T23:49:48.767Z,89.99
2023-07-24T23:52:19.024Z,89.76
2023-07-24T23:54:49.559Z,89.77
2023-07-24T23:57:22.476Z,90.08
2023-07-24T23:59:52.828Z,89.94
